Gurleyville, Connecticut
Current Conditions -  °F | °C
As of 12:52 PM on Friday 28 Nov 2014 (Local Time) from KIJD Reporting Station
Few Clouds Few Clouds  
Wind Chill: 28°   Ceiling: Unl
Heat Index: 36°   Visibility: 10mi
Dew Point: 19°   Wind: 12mph
Humidity: 50%   Direction: 340°NNW
Pressure: 30.08"   Gusts: 25mph
Location:  41.8004°N, 72.2476°W
Report Text: KIJD 281752Z AUTO 34010G22KT 10SM FEW039 02/M07 A3008 RMK AO2 SLP189 T00221072 10028 21017 58005
Loading
Personal Weather Stations






























Interactive Weather Map New forecast layout! Learn more

10-Day Weather Forecast

Advertisements
Track Severe Weather on mobile